sensor_id;sensor_type;location;lat;lon;timestamp;temperature;humidity
19342;DHT22;9807;48.258;12.690;2023-12-20T00:00:59;3.90;99.90
19342;DHT22;9807;48.258;12.690;2023-12-20T00:03:25;4.30;99.90
19342;DHT22;9807;48.258;12.690;2023-12-20T00:05:51;4.50;99.90
19342;DHT22;9807;48.258;12.690;2023-12-20T00:08:16;4.50;99.90
19342;DHT22;9807;48.258;12.690;2023-12-20T00:10:43;4.50;99.90
19342;DHT22;9807;48.258;12.690;2023-12-20T00:13:09;4.60;99.90
19342;DHT22;9807;48.258;12.690;2023-12-20T00:15:35;4.20;99.90
19342;DHT22;9807;48.258;12.690;2023-12-20T00:18:00;4.20;99.90
19342;DHT22;9807;48.258;12.690;2023-12-20T00:20:27;4.20;99.90
19342;DHT22;9807;48.258;12.690;2023-12-20T00:22:58;4.30;99.90
19342;DHT22;9807;48.258;12.690;2023-12-20T00:25:24;4.20;99.90
19342;DHT22;9807;48.258;12.690;2023-12-20T00:27:51;4.40;99.90
19342;DHT22;9807;48.258;12.690;2023-12-20T00:30:17;4.70;99.90
19342;DHT22;9807;48.258;12.690;2023-12-20T00:32:42;4.90;99.90
19342;DHT22;9807;48.258;12.690;2023-12-20T00:35:15;5.10;99.90
19342;DHT22;9807;48.258;12.690;2023-12-20T00:37:42;5.30;99.90
19342;DHT22;9807;48.258;12.690;2023-12-20T00:40:08;5.50;99.90
19342;DHT22;9807;48.258;12.690;2023-12-20T00:42:34;5.60;99.90
19342;DHT22;9807;48.258;12.690;2023-12-20T00:45:00;5.70;99.90
19342;DHT22;9807;48.258;12.690;2023-12-20T00:47:26;5.70;99.90
19342;DHT22;9807;48.258;12.690;2023-12-20T00:49:52;5.60;99.90
19342;DHT22;9807;48.258;12.690;2023-12-20T00:55:40;4.00;99.90
19342;DHT22;9807;48.258;12.690;2023-12-20T00:58:06;4.10;99.90
19342;DHT22;9807;48.258;12.690;2023-12-20T01:03:53;4.60;99.90
19342;DHT22;9807;48.258;12.690;2023-12-20T01:06:19;4.90;99.90
19342;DHT22;9807;48.258;12.690;2023-12-20T01:08:45;5.00;99.90
19342;DHT22;9807;48.258;12.690;2023-12-20T01:11:10;5.30;99.90
19342;DHT22;9807;48.258;12.690;2023-12-20T01:13:36;5.40;99.90
19342;DHT22;9807;48.258;12.690;2023-12-20T01:16:02;5.50;99.90
19342;DHT22;9807;48.258;12.690;2023-12-20T01:18:28;5.60;99.90
19342;DHT22;9807;48.258;12.690;2023-12-20T01:20:53;5.70;99.90
19342;DHT22;9807;48.258;12.690;2023-12-20T01:23:19;5.50;99.90
19342;DHT22;9807;48.258;12.690;2023-12-20T01:25:45;5.40;99.90
19342;DHT22;9807;48.258;12.690;2023-12-20T01:28:10;5.40;99.90
19342;DHT22;9807;48.258;12.690;2023-12-20T01:30:36;5.40;99.90
19342;DHT22;9807;48.258;12.690;2023-12-20T01:33:01;5.30;99.90
19342;DHT22;9807;48.258;12.690;2023-12-20T01:35:27;5.40;99.90
19342;DHT22;9807;48.258;12.690;2023-12-20T01:37:53;5.50;99.90
19342;DHT22;9807;48.258;12.690;2023-12-20T01:40:22;5.50;99.90
19342;DHT22;9807;48.258;12.690;2023-12-20T01:43:01;5.60;99.90
19342;DHT22;9807;48.258;12.690;2023-12-20T01:45:26;5.70;99.90
19342;DHT22;9807;48.258;12.690;2023-12-20T01:47:53;5.60;99.90
19342;DHT22;9807;48.258;12.690;2023-12-20T01:50:20;5.60;99.90
19342;DHT22;9807;48.258;12.690;2023-12-20T01:52:46;5.50;99.90
19342;DHT22;9807;48.258;12.690;2023-12-20T01:55:12;5.40;99.90
19342;DHT22;9807;48.258;12.690;2023-12-20T01:57:41;5.00;99.90
19342;DHT22;9807;48.258;12.690;2023-12-20T02:00:07;4.80;99.90
19342;DHT22;9807;48.258;12.690;2023-12-20T02:02:37;4.90;99.90
19342;DHT22;9807;48.258;12.690;2023-12-20T02:05:05;5.00;99.90
19342;DHT22;9807;48.258;12.690;2023-12-20T02:07:31;5.20;99.90
19342;DHT22;9807;48.258;12.690;2023-12-20T02:09:57;5.40;99.90
19342;DHT22;9807;48.258;12.690;2023-12-20T02:12:23;5.50;99.90
19342;DHT22;9807;48.258;12.690;2023-12-20T02:14:49;5.40;99.90
19342;DHT22;9807;48.258;12.690;2023-12-20T02:17:15;5.10;99.90
19342;DHT22;9807;48.258;12.690;2023-12-20T02:19:41;5.00;99.90
19342;DHT22;9807;48.258;12.690;2023-12-20T02:22:10;4.70;99.90
19342;DHT22;9807;48.258;12.690;2023-12-20T02:24:36;4.10;99.90
19342;DHT22;9807;48.258;12.690;2023-12-20T02:27:02;3.80;99.90
19342;DHT22;9807;48.258;12.690;2023-12-20T02:29:28;3.60;99.90
19342;DHT22;9807;48.258;12.690;2023-12-20T02:31:54;3.80;99.90
19342;DHT22;9807;48.258;12.690;2023-12-20T02:34:19;3.70;99.90
19342;DHT22;9807;48.258;12.690;2023-12-20T02:36:45;3.80;99.90
19342;DHT22;9807;48.258;12.690;2023-12-20T02:39:11;4.10;99.90
19342;DHT22;9807;48.258;12.690;2023-12-20T02:41:36;4.40;99.90
19342;DHT22;9807;48.258;12.690;2023-12-20T02:44:03;4.60;99.90
19342;DHT22;9807;48.258;12.690;2023-12-20T02:46:28;4.10;99.90
19342;DHT22;9807;48.258;12.690;2023-12-20T02:48:54;3.80;99.90
19342;DHT22;9807;48.258;12.690;2023-12-20T02:51:19;3.80;99.90
19342;DHT22;9807;48.258;12.690;2023-12-20T02:53:45;4.10;99.90
19342;DHT22;9807;48.258;12.690;2023-12-20T02:56:11;4.40;99.90
19342;DHT22;9807;48.258;12.690;2023-12-20T02:58:36;4.80;99.90
19342;DHT22;9807;48.258;12.690;2023-12-20T03:01:02;5.00;99.90
19342;DHT22;9807;48.258;12.690;2023-12-20T03:03:28;5.20;99.90
19342;DHT22;9807;48.258;12.690;2023-12-20T03:05:53;5.50;99.90
19342;DHT22;9807;48.258;12.690;2023-12-20T03:08:19;5.70;99.90
19342;DHT22;9807;48.258;12.690;2023-12-20T03:10:45;5.80;99.90
19342;DHT22;9807;48.258;12.690;2023-12-20T03:13:10;5.90;99.90
19342;DHT22;9807;48.258;12.690;2023-12-20T03:15:36;5.40;99.90
19342;DHT22;9807;48.258;12.690;2023-12-20T03:18:02;5.00;99.90
19342;DHT22;9807;48.258;12.690;2023-12-20T03:20:28;4.70;99.90
19342;DHT22;9807;48.258;12.690;2023-12-20T03:22:53;4.70;99.90
19342;DHT22;9807;48.258;12.690;2023-12-20T03:25:19;4.70;99.90
19342;DHT22;9807;48.258;12.690;2023-12-20T03:27:45;4.50;99.90
19342;DHT22;9807;48.258;12.690;2023-12-20T03:30:10;4.10;99.90
19342;DHT22;9807;48.258;12.690;2023-12-20T03:32:38;3.60;99.90
19342;DHT22;9807;48.258;12.690;2023-12-20T03:35:03;3.40;99.90
19342;DHT22;9807;48.258;12.690;2023-12-20T03:37:29;3.30;99.90
19342;DHT22;9807;48.258;12.690;2023-12-20T03:39:55;3.60;99.90
19342;DHT22;9807;48.258;12.690;2023-12-20T03:42:20;4.00;99.90
19342;DHT22;9807;48.258;12.690;2023-12-20T03:44:46;4.40;99.90
19342;DHT22;9807;48.258;12.690;2023-12-20T03:47:11;4.80;99.90
19342;DHT22;9807;48.258;12.690;2023-12-20T03:49:37;5.10;99.90
19342;DHT22;9807;48.258;12.690;2023-12-20T03:52:04;5.30;99.90
19342;DHT22;9807;48.258;12.690;2023-12-20T03:54:30;5.40;99.90
19342;DHT22;9807;48.258;12.690;2023-12-20T03:56:55;5.50;99.90
19342;DHT22;9807;48.258;12.690;2023-12-20T03:59:21;5.60;99.90
19342;DHT22;9807;48.258;12.690;2023-12-20T04:01:47;5.50;99.90
19342;DHT22;9807;48.258;12.690;2023-12-20T04:04:13;5.50;99.90
19342;DHT22;9807;48.258;12.690;2023-12-20T04:06:39;5.50;99.90
19342;DHT22;9807;48.258;12.690;2023-12-20T04:09:05;5.70;99.90
19342;DHT22;9807;48.258;12.690;2023-12-20T04:11:31;5.80;99.90
19342;DHT22;9807;48.258;12.690;2023-12-20T04:13:56;5.80;99.90
19342;DHT22;9807;48.258;12.690;2023-12-20T04:16:22;5.90;99.90
19342;DHT22;9807;48.258;12.690;2023-12-20T04:18:47;5.80;99.90
19342;DHT22;9807;48.258;12.690;2023-12-20T04:21:13;5.60;99.90
19342;DHT22;9807;48.258;12.690;2023-12-20T04:23:39;5.40;99.90
19342;DHT22;9807;48.258;12.690;2023-12-20T04:26:04;5.30;99.90
19342;DHT22;9807;48.258;12.690;2023-12-20T04:28:30;5.10;99.90
19342;DHT22;9807;48.258;12.690;2023-12-20T04:30:56;4.60;99.90
19342;DHT22;9807;48.258;12.690;2023-12-20T04:33:22;4.40;99.90
19342;DHT22;9807;48.258;12.690;2023-12-20T04:35:48;4.20;99.90
19342;DHT22;9807;48.258;12.690;2023-12-20T04:38:13;4.00;99.90
19342;DHT22;9807;48.258;12.690;2023-12-20T04:40:39;3.70;99.90
19342;DHT22;9807;48.258;12.690;2023-12-20T04:43:06;3.20;99.90
19342;DHT22;9807;48.258;12.690;2023-12-20T04:45:32;2.80;99.90
19342;DHT22;9807;48.258;12.690;2023-12-20T04:47:58;2.80;99.90
19342;DHT22;9807;48.258;12.690;2023-12-20T04:50:24;2.90;99.90
19342;DHT22;9807;48.258;12.690;2023-12-20T04:52:49;3.10;99.90
19342;DHT22;9807;48.258;12.690;2023-12-20T04:55:15;3.30;99.90
19342;DHT22;9807;48.258;12.690;2023-12-20T04:57:41;3.20;99.90
19342;DHT22;9807;48.258;12.690;2023-12-20T05:00:07;3.40;99.90
19342;DHT22;9807;48.258;12.690;2023-12-20T05:02:37;3.70;99.90
19342;DHT22;9807;48.258;12.690;2023-12-20T05:05:03;4.00;99.90
19342;DHT22;9807;48.258;12.690;2023-12-20T05:07:28;4.20;99.90
19342;DHT22;9807;48.258;12.690;2023-12-20T05:09:54;4.30;99.90
19342;DHT22;9807;48.258;12.690;2023-12-20T05:12:20;4.50;99.90
19342;DHT22;9807;48.258;12.690;2023-12-20T05:14:46;4.80;99.90
19342;DHT22;9807;48.258;12.690;2023-12-20T05:17:11;5.00;99.90
19342;DHT22;9807;48.258;12.690;2023-12-20T05:19:37;5.20;99.90
19342;DHT22;9807;48.258;12.690;2023-12-20T05:22:03;5.40;99.90
19342;DHT22;9807;48.258;12.690;2023-12-20T05:24:29;5.60;99.90
19342;DHT22;9807;48.258;12.690;2023-12-20T05:26:54;5.80;99.90
19342;DHT22;9807;48.258;12.690;2023-12-20T05:29:20;5.90;99.90
19342;DHT22;9807;48.258;12.690;2023-12-20T05:31:46;5.90;99.90
19342;DHT22;9807;48.258;12.690;2023-12-20T05:34:12;5.90;99.90
19342;DHT22;9807;48.258;12.690;2023-12-20T05:36:37;5.80;99.90
19342;DHT22;9807;48.258;12.690;2023-12-20T05:39:04;5.70;99.90
19342;DHT22;9807;48.258;12.690;2023-12-20T05:41:30;5.50;99.90
19342;DHT22;9807;48.258;12.690;2023-12-20T05:43:56;5.30;99.90
19342;DHT22;9807;48.258;12.690;2023-12-20T05:46:23;5.00;99.90
19342;DHT22;9807;48.258;12.690;2023-12-20T05:48:49;4.80;99.90
19342;DHT22;9807;48.258;12.690;2023-12-20T05:51:15;4.60;99.90
19342;DHT22;9807;48.258;12.690;2023-12-20T05:53:40;4.50;99.90
19342;DHT22;9807;48.258;12.690;2023-12-20T05:56:06;4.40;99.90
19342;DHT22;9807;48.258;12.690;2023-12-20T05:58:33;4.30;99.90
19342;DHT22;9807;48.258;12.690;2023-12-20T06:00:59;4.20;99.90
19342;DHT22;9807;48.258;12.690;2023-12-20T06:03:25;4.10;99.90
19342;DHT22;9807;48.258;12.690;2023-12-20T06:05:50;4.20;99.90
19342;DHT22;9807;48.258;12.690;2023-12-20T06:08:16;4.10;99.90
19342;DHT22;9807;48.258;12.690;2023-12-20T06:10:41;4.10;99.90
19342;DHT22;9807;48.258;12.690;2023-12-20T06:13:07;4.00;99.90
19342;DHT22;9807;48.258;12.690;2023-12-20T06:15:33;4.00;99.90
19342;DHT22;9807;48.258;12.690;2023-12-20T06:17:59;3.90;99.90
19342;DHT22;9807;48.258;12.690;2023-12-20T06:20:24;3.90;99.90
19342;DHT22;9807;48.258;12.690;2023-12-20T06:22:50;3.90;99.90
19342;DHT22;9807;48.258;12.690;2023-12-20T06:25:16;4.00;99.90
19342;DHT22;9807;48.258;12.690;2023-12-20T06:27:42;4.00;99.90
19342;DHT22;9807;48.258;12.690;2023-12-20T06:30:08;4.00;99.90
19342;DHT22;9807;48.258;12.690;2023-12-20T06:32:36;4.00;99.90
19342;DHT22;9807;48.258;12.690;2023-12-20T06:35:04;4.10;99.90
19342;DHT22;9807;48.258;12.690;2023-12-20T06:37:30;4.20;99.90
19342;DHT22;9807;48.258;12.690;2023-12-20T06:39:56;4.20;99.90
19342;DHT22;9807;48.258;12.690;2023-12-20T06:42:22;4.20;99.90
19342;DHT22;9807;48.258;12.690;2023-12-20T06:44:48;4.30;99.90
19342;DHT22;9807;48.258;12.690;2023-12-20T06:47:13;4.30;99.90
19342;DHT22;9807;48.258;12.690;2023-12-20T06:49:40;4.40;99.90
19342;DHT22;9807;48.258;12.690;2023-12-20T06:52:06;4.40;99.90
19342;DHT22;9807;48.258;12.690;2023-12-20T06:54:31;4.40;99.90
19342;DHT22;9807;48.258;12.690;2023-12-20T06:56:59;4.50;99.90
19342;DHT22;9807;48.258;12.690;2023-12-20T06:59:25;4.50;99.90
19342;DHT22;9807;48.258;12.690;2023-12-20T07:01:51;4.50;99.90
19342;DHT22;9807;48.258;12.690;2023-12-20T07:04:17;4.50;99.90
19342;DHT22;9807;48.258;12.690;2023-12-20T07:06:47;4.50;99.90
19342;DHT22;9807;48.258;12.690;2023-12-20T07:09:13;4.50;99.90
19342;DHT22;9807;48.258;12.690;2023-12-20T07:11:39;4.50;99.90
19342;DHT22;9807;48.258;12.690;2023-12-20T07:14:05;4.50;99.90
19342;DHT22;9807;48.258;12.690;2023-12-20T07:16:31;4.60;99.90
19342;DHT22;9807;48.258;12.690;2023-12-20T07:18:57;4.60;99.90
19342;DHT22;9807;48.258;12.690;2023-12-20T07:21:23;4.60;99.90
19342;DHT22;9807;48.258;12.690;2023-12-20T07:23:48;4.60;99.90
19342;DHT22;9807;48.258;12.690;2023-12-20T07:26:15;4.70;99.90
19342;DHT22;9807;48.258;12.690;2023-12-20T07:28:41;4.70;99.90
19342;DHT22;9807;48.258;12.690;2023-12-20T07:31:06;4.70;99.90
19342;DHT22;9807;48.258;12.690;2023-12-20T07:33:32;4.80;99.90
19342;DHT22;9807;48.258;12.690;2023-12-20T07:35:59;4.80;99.90
19342;DHT22;9807;48.258;12.690;2023-12-20T07:38:26;4.90;99.90
19342;DHT22;9807;48.258;12.690;2023-12-20T07:40:51;4.90;99.90
19342;DHT22;9807;48.258;12.690;2023-12-20T07:43:17;4.90;99.90
19342;DHT22;9807;48.258;12.690;2023-12-20T07:45:43;4.90;99.90
19342;DHT22;9807;48.258;12.690;2023-12-20T07:48:08;4.80;99.90
19342;DHT22;9807;48.258;12.690;2023-12-20T07:50:34;4.80;99.90
19342;DHT22;9807;48.258;12.690;2023-12-20T07:53:00;4.80;99.90
19342;DHT22;9807;48.258;12.690;2023-12-20T07:55:26;4.80;99.90
19342;DHT22;9807;48.258;12.690;2023-12-20T07:57:52;4.80;99.90
19342;DHT22;9807;48.258;12.690;2023-12-20T08:00:18;4.80;99.90
19342;DHT22;9807;48.258;12.690;2023-12-20T08:02:45;4.80;99.90
19342;DHT22;9807;48.258;12.690;2023-12-20T08:05:10;4.80;99.90
19342;DHT22;9807;48.258;12.690;2023-12-20T08:07:36;4.90;99.90
19342;DHT22;9807;48.258;12.690;2023-12-20T08:10:02;4.90;99.90
19342;DHT22;9807;48.258;12.690;2023-12-20T08:12:28;4.90;99.90
19342;DHT22;9807;48.258;12.690;2023-12-20T08:14:54;4.90;99.90
19342;DHT22;9807;48.258;12.690;2023-12-20T08:17:20;4.90;99.90
19342;DHT22;9807;48.258;12.690;2023-12-20T08:19:46;4.80;99.90
19342;DHT22;9807;48.258;12.690;2023-12-20T08:22:11;4.80;99.90
19342;DHT22;9807;48.258;12.690;2023-12-20T08:24:37;4.80;99.90
19342;DHT22;9807;48.258;12.690;2023-12-20T08:27:04;4.80;99.90
19342;DHT22;9807;48.258;12.690;2023-12-20T08:29:30;4.80;99.90
19342;DHT22;9807;48.258;12.690;2023-12-20T08:31:56;4.80;99.90
19342;DHT22;9807;48.258;12.690;2023-12-20T08:34:22;4.80;99.90
19342;DHT22;9807;48.258;12.690;2023-12-20T08:36:50;4.80;99.90
19342;DHT22;9807;48.258;12.690;2023-12-20T08:39:16;4.80;99.90
19342;DHT22;9807;48.258;12.690;2023-12-20T08:41:42;4.90;99.90
19342;DHT22;9807;48.258;12.690;2023-12-20T08:44:08;4.90;99.90
19342;DHT22;9807;48.258;12.690;2023-12-20T08:46:34;4.90;99.90
19342;DHT22;9807;48.258;12.690;2023-12-20T08:49:01;4.90;99.90
19342;DHT22;9807;48.258;12.690;2023-12-20T08:51:27;4.90;99.90
19342;DHT22;9807;48.258;12.690;2023-12-20T08:53:54;4.90;99.90
19342;DHT22;9807;48.258;12.690;2023-12-20T08:56:20;5.00;99.90
19342;DHT22;9807;48.258;12.690;2023-12-20T08:58:46;5.00;99.90
19342;DHT22;9807;48.258;12.690;2023-12-20T09:01:13;5.00;99.90
19342;DHT22;9807;48.258;12.690;2023-12-20T09:03:39;5.00;99.90
19342;DHT22;9807;48.258;12.690;2023-12-20T09:06:05;4.90;99.90
19342;DHT22;9807;48.258;12.690;2023-12-20T09:08:31;5.00;99.90
19342;DHT22;9807;48.258;12.690;2023-12-20T09:10:57;5.00;99.90
19342;DHT22;9807;48.258;12.690;2023-12-20T09:13:23;5.00;99.90
19342;DHT22;9807;48.258;12.690;2023-12-20T09:15:57;5.00;99.90
19342;DHT22;9807;48.258;12.690;2023-12-20T09:18:23;5.00;99.90
19342;DHT22;9807;48.258;12.690;2023-12-20T09:20:50;5.00;99.90
19342;DHT22;9807;48.258;12.690;2023-12-20T09:23:15;5.00;99.90
19342;DHT22;9807;48.258;12.690;2023-12-20T09:25:41;5.10;99.90
19342;DHT22;9807;48.258;12.690;2023-12-20T09:28:06;5.00;99.90
19342;DHT22;9807;48.258;12.690;2023-12-20T09:30:32;5.10;99.90
19342;DHT22;9807;48.258;12.690;2023-12-20T09:32:59;5.00;99.90
19342;DHT22;9807;48.258;12.690;2023-12-20T09:35:24;5.00;99.90
19342;DHT22;9807;48.258;12.690;2023-12-20T09:37:51;5.00;99.90
19342;DHT22;9807;48.258;12.690;2023-12-20T09:40:20;5.00;99.90
19342;DHT22;9807;48.258;12.690;2023-12-20T09:42:58;5.00;99.90
19342;DHT22;9807;48.258;12.690;2023-12-20T09:45:26;4.90;99.90
19342;DHT22;9807;48.258;12.690;2023-12-20T09:47:53;5.00;99.90
19342;DHT22;9807;48.258;12.690;2023-12-20T09:50:20;5.00;99.90
19342;DHT22;9807;48.258;12.690;2023-12-20T09:52:50;5.00;99.90
19342;DHT22;9807;48.258;12.690;2023-12-20T09:55:20;5.00;99.90
19342;DHT22;9807;48.258;12.690;2023-12-20T09:57:47;5.00;99.90
19342;DHT22;9807;48.258;12.690;2023-12-20T10:00:14;5.00;99.90
19342;DHT22;9807;48.258;12.690;2023-12-20T10:03:00;5.00;99.90
19342;DHT22;9807;48.258;12.690;2023-12-20T10:05:30;4.90;99.90
19342;DHT22;9807;48.258;12.690;2023-12-20T10:07:57;5.00;99.90
19342;DHT22;9807;48.258;12.690;2023-12-20T10:10:23;5.00;99.90
19342;DHT22;9807;48.258;12.690;2023-12-20T10:13:11;5.00;99.90
19342;DHT22;9807;48.258;12.690;2023-12-20T10:15:37;5.00;99.90
19342;DHT22;9807;48.258;12.690;2023-12-20T10:18:04;5.00;99.90
19342;DHT22;9807;48.258;12.690;2023-12-20T10:20:30;5.00;99.90
19342;DHT22;9807;48.258;12.690;2023-12-20T10:22:57;5.00;99.90
19342;DHT22;9807;48.258;12.690;2023-12-20T10:25:25;5.00;99.90
19342;DHT22;9807;48.258;12.690;2023-12-20T10:28:12;5.10;99.90
19342;DHT22;9807;48.258;12.690;2023-12-20T10:30:38;5.10;99.90
19342;DHT22;9807;48.258;12.690;2023-12-20T10:33:09;5.00;99.90
19342;DHT22;9807;48.258;12.690;2023-12-20T10:35:35;5.00;99.90
19342;DHT22;9807;48.258;12.690;2023-12-20T10:38:04;5.00;99.90
19342;DHT22;9807;48.258;12.690;2023-12-20T10:40:30;5.00;99.90
19342;DHT22;9807;48.258;12.690;2023-12-20T10:42:56;5.10;99.90
19342;DHT22;9807;48.258;12.690;2023-12-20T10:45:24;5.00;99.90
19342;DHT22;9807;48.258;12.690;2023-12-20T10:47:51;5.10;99.90
19342;DHT22;9807;48.258;12.690;2023-12-20T10:50:18;5.10;99.90
19342;DHT22;9807;48.258;12.690;2023-12-20T10:52:44;5.10;99.90
19342;DHT22;9807;48.258;12.690;2023-12-20T10:55:11;5.20;99.90
19342;DHT22;9807;48.258;12.690;2023-12-20T10:57:36;5.20;99.90
19342;DHT22;9807;48.258;12.690;2023-12-20T11:00:03;5.20;99.90
19342;DHT22;9807;48.258;12.690;2023-12-20T11:02:33;5.20;99.90
19342;DHT22;9807;48.258;12.690;2023-12-20T11:11:07;5.20;99.90
19342;DHT22;9807;48.258;12.690;2023-12-20T11:13:40;5.20;99.90
19342;DHT22;9807;48.258;12.690;2023-12-20T11:16:07;5.30;99.90
19342;DHT22;9807;48.258;12.690;2023-12-20T11:18:33;5.30;99.90
19342;DHT22;9807;48.258;12.690;2023-12-20T11:21:04;5.30;99.90
19342;DHT22;9807;48.258;12.690;2023-12-20T11:23:30;5.30;99.90
19342;DHT22;9807;48.258;12.690;2023-12-20T11:25:59;5.40;99.90
19342;DHT22;9807;48.258;12.690;2023-12-20T11:28:26;5.30;99.90
19342;DHT22;9807;48.258;12.690;2023-12-20T11:30:55;5.40;99.90
19342;DHT22;9807;48.258;12.690;2023-12-20T11:33:26;5.40;99.90
19342;DHT22;9807;48.258;12.690;2023-12-20T11:35:52;5.50;99.90
19342;DHT22;9807;48.258;12.690;2023-12-20T11:38:21;5.50;99.90
19342;DHT22;9807;48.258;12.690;2023-12-20T11:40:48;5.50;99.90
19342;DHT22;9807;48.258;12.690;2023-12-20T11:43:31;5.50;99.90
19342;DHT22;9807;48.258;12.690;2023-12-20T11:46:06;5.50;99.90
19342;DHT22;9807;48.258;12.690;2023-12-20T11:48:34;5.60;99.90
19342;DHT22;9807;48.258;12.690;2023-12-20T11:51:00;5.60;99.90
19342;DHT22;9807;48.258;12.690;2023-12-20T11:53:25;5.70;99.90
19342;DHT22;9807;48.258;12.690;2023-12-20T11:55:51;5.70;99.90
19342;DHT22;9807;48.258;12.690;2023-12-20T11:58:17;5.70;99.90
19342;DHT22;9807;48.258;12.690;2023-12-20T12:00:43;5.70;99.90
19342;DHT22;9807;48.258;12.690;2023-12-20T12:03:09;5.70;99.90
19342;DHT22;9807;48.258;12.690;2023-12-20T12:05:35;5.80;99.90
19342;DHT22;9807;48.258;12.690;2023-12-20T12:08:02;5.80;99.90
19342;DHT22;9807;48.258;12.690;2023-12-20T12:10:28;5.80;99.90
19342;DHT22;9807;48.258;12.690;2023-12-20T12:12:54;5.90;99.90
19342;DHT22;9807;48.258;12.690;2023-12-20T12:15:20;5.90;99.90
19342;DHT22;9807;48.258;12.690;2023-12-20T12:17:56;6.00;99.90
19342;DHT22;9807;48.258;12.690;2023-12-20T12:20:23;6.00;99.90
19342;DHT22;9807;48.258;12.690;2023-12-20T12:23:05;6.10;99.90
19342;DHT22;9807;48.258;12.690;2023-12-20T12:25:32;6.10;99.90
19342;DHT22;9807;48.258;12.690;2023-12-20T12:27:59;6.20;99.90
19342;DHT22;9807;48.258;12.690;2023-12-20T12:30:25;6.20;99.90
19342;DHT22;9807;48.258;12.690;2023-12-20T12:32:52;6.20;99.90
19342;DHT22;9807;48.258;12.690;2023-12-20T12:35:18;6.30;99.90
19342;DHT22;9807;48.258;12.690;2023-12-20T12:37:44;6.30;99.90
19342;DHT22;9807;48.258;12.690;2023-12-20T12:40:11;6.30;99.90
19342;DHT22;9807;48.258;12.690;2023-12-20T12:42:37;6.30;99.90
19342;DHT22;9807;48.258;12.690;2023-12-20T12:45:04;6.40;99.90
19342;DHT22;9807;48.258;12.690;2023-12-20T12:47:30;6.30;99.90
19342;DHT22;9807;48.258;12.690;2023-12-20T12:49:56;6.40;99.90
19342;DHT22;9807;48.258;12.690;2023-12-20T12:52:21;6.30;99.90
19342;DHT22;9807;48.258;12.690;2023-12-20T12:54:48;6.30;99.90
19342;DHT22;9807;48.258;12.690;2023-12-20T12:57:14;6.10;99.90
19342;DHT22;9807;48.258;12.690;2023-12-20T12:59:41;6.00;99.90
19342;DHT22;9807;48.258;12.690;2023-12-20T13:02:08;5.90;99.90
19342;DHT22;9807;48.258;12.690;2023-12-20T13:04:33;5.90;99.90
19342;DHT22;9807;48.258;12.690;2023-12-20T13:06:59;5.80;99.90
19342;DHT22;9807;48.258;12.690;2023-12-20T13:09:25;5.80;99.90
19342;DHT22;9807;48.258;12.690;2023-12-20T13:11:51;5.70;99.90
19342;DHT22;9807;48.258;12.690;2023-12-20T13:14:19;5.70;99.90
19342;DHT22;9807;48.258;12.690;2023-12-20T13:16:45;5.70;99.90
19342;DHT22;9807;48.258;12.690;2023-12-20T13:19:11;5.70;99.90
19342;DHT22;9807;48.258;12.690;2023-12-20T13:21:36;5.70;99.90
19342;DHT22;9807;48.258;12.690;2023-12-20T13:24:02;5.70;99.90
19342;DHT22;9807;48.258;12.690;2023-12-20T13:26:28;5.70;99.90
19342;DHT22;9807;48.258;12.690;2023-12-20T13:28:54;5.80;99.90
19342;DHT22;9807;48.258;12.690;2023-12-20T13:31:20;5.80;99.90
19342;DHT22;9807;48.258;12.690;2023-12-20T13:33:46;5.70;99.90
19342;DHT22;9807;48.258;12.690;2023-12-20T13:36:12;5.70;99.90
19342;DHT22;9807;48.258;12.690;2023-12-20T13:38:38;5.70;99.90
19342;DHT22;9807;48.258;12.690;2023-12-20T13:41:04;5.70;99.90
19342;DHT22;9807;48.258;12.690;2023-12-20T13:43:31;5.70;99.90
19342;DHT22;9807;48.258;12.690;2023-12-20T13:45:59;5.70;99.90
19342;DHT22;9807;48.258;12.690;2023-12-20T13:48:25;5.70;99.90
19342;DHT22;9807;48.258;12.690;2023-12-20T13:50:50;5.70;99.90
19342;DHT22;9807;48.258;12.690;2023-12-20T13:53:16;5.60;99.90
19342;DHT22;9807;48.258;12.690;2023-12-20T13:55:42;5.60;99.90
19342;DHT22;9807;48.258;12.690;2023-12-20T13:58:07;5.70;99.90
19342;DHT22;9807;48.258;12.690;2023-12-20T14:00:35;5.60;99.90
19342;DHT22;9807;48.258;12.690;2023-12-20T14:03:03;5.70;99.90
19342;DHT22;9807;48.258;12.690;2023-12-20T14:05:28;5.60;99.90
19342;DHT22;9807;48.258;12.690;2023-12-20T14:07:54;5.60;99.90
19342;DHT22;9807;48.258;12.690;2023-12-20T14:10:20;5.60;99.90
19342;DHT22;9807;48.258;12.690;2023-12-20T14:12:45;5.60;99.90
19342;DHT22;9807;48.258;12.690;2023-12-20T14:15:11;5.70;99.90
19342;DHT22;9807;48.258;12.690;2023-12-20T14:17:39;5.60;99.90
19342;DHT22;9807;48.258;12.690;2023-12-20T14:20:08;5.70;99.90
19342;DHT22;9807;48.258;12.690;2023-12-20T14:22:35;5.70;99.90
19342;DHT22;9807;48.258;12.690;2023-12-20T14:25:01;5.70;99.90
19342;DHT22;9807;48.258;12.690;2023-12-20T14:27:27;5.70;99.90
19342;DHT22;9807;48.258;12.690;2023-12-20T14:29:59;5.60;99.90
19342;DHT22;9807;48.258;12.690;2023-12-20T14:32:25;5.70;99.90
19342;DHT22;9807;48.258;12.690;2023-12-20T14:34:52;5.60;99.90
19342;DHT22;9807;48.258;12.690;2023-12-20T14:37:20;5.70;99.90
19342;DHT22;9807;48.258;12.690;2023-12-20T14:39:45;5.60;99.90
19342;DHT22;9807;48.258;12.690;2023-12-20T14:42:11;5.50;99.90
19342;DHT22;9807;48.258;12.690;2023-12-20T14:44:40;5.50;99.90
19342;DHT22;9807;48.258;12.690;2023-12-20T14:47:06;5.40;99.90
19342;DHT22;9807;48.258;12.690;2023-12-20T14:49:32;5.40;99.90
19342;DHT22;9807;48.258;12.690;2023-12-20T14:51:58;5.30;99.90
19342;DHT22;9807;48.258;12.690;2023-12-20T14:54:25;5.30;99.90
19342;DHT22;9807;48.258;12.690;2023-12-20T14:56:51;5.30;99.90
19342;DHT22;9807;48.258;12.690;2023-12-20T14:59:16;5.30;99.90
19342;DHT22;9807;48.258;12.690;2023-12-20T15:01:43;5.30;99.90
19342;DHT22;9807;48.258;12.690;2023-12-20T15:04:09;5.20;99.90
19342;DHT22;9807;48.258;12.690;2023-12-20T15:06:35;5.10;99.90
19342;DHT22;9807;48.258;12.690;2023-12-20T15:09:01;5.10;99.90
19342;DHT22;9807;48.258;12.690;2023-12-20T15:11:31;5.20;99.90
19342;DHT22;9807;48.258;12.690;2023-12-20T15:13:56;5.20;99.90
19342;DHT22;9807;48.258;12.690;2023-12-20T15:16:24;5.10;99.90
19342;DHT22;9807;48.258;12.690;2023-12-20T15:18:49;5.10;99.90
19342;DHT22;9807;48.258;12.690;2023-12-20T15:21:16;5.00;99.90
19342;DHT22;9807;48.258;12.690;2023-12-20T15:23:42;5.00;99.90
19342;DHT22;9807;48.258;12.690;2023-12-20T15:26:18;4.90;99.90
19342;DHT22;9807;48.258;12.690;2023-12-20T15:28:44;4.90;99.90
19342;DHT22;9807;48.258;12.690;2023-12-20T15:31:10;4.80;99.90
19342;DHT22;9807;48.258;12.690;2023-12-20T15:33:35;4.90;99.90
19342;DHT22;9807;48.258;12.690;2023-12-20T15:36:01;4.80;99.90
19342;DHT22;9807;48.258;12.690;2023-12-20T15:38:26;4.80;99.90
19342;DHT22;9807;48.258;12.690;2023-12-20T15:40:52;4.80;99.90
19342;DHT22;9807;48.258;12.690;2023-12-20T15:43:18;4.80;99.90
19342;DHT22;9807;48.258;12.690;2023-12-20T15:45:43;4.80;99.90
19342;DHT22;9807;48.258;12.690;2023-12-20T15:48:11;4.80;99.90
19342;DHT22;9807;48.258;12.690;2023-12-20T15:50:43;4.80;99.90
19342;DHT22;9807;48.258;12.690;2023-12-20T15:53:08;4.80;99.90